A- A+ FrançaisEnglishEspañol中国

le plus proche LFBE Bergerac-RoumaniereLFBT Tarbes-Lourdes-PyrénéesLFMD Cannes-Mandelieu LFBP Pau-Pyrénées

manche à air

La météo aéronautique pour les pilotes, la préparation du vol avec les METAR (METeorological Aerodrome Report, message d'observation des conditions météorologiques pour l'aviation) et Les TAF (Terminal Aerodrome Forecast : message de prévision à court terme des conditions météorologiques pour l'aviation). Et les autres ressources comme les VAC (Visual Approch Chart) et les NOTAM (Notice To Airman) pour préprer les vols.

Aéroport Linkoping SAAB (Suède) / OACI ESSL/ IATA LPI

L'altitude de l'aéroport Linkoping SAAB est de 52 m=171 ft. Il est situé à proximité de Linköping (Suède). La météo générale à 5 jours est disponible pour Linköping socken situé à 3.2 km.

METAR de l'aéroport Linkoping SAAB - ESSL

ESSL 211250Z AUTO 15002KT 2000 -RA OVC003/// 05/05 Q0988 REDZ

Décodage du METAR de l'aéroport Linkoping SAAB (SE)

METAR émis par ESSL le samedi 21 décembre 2019 à 12:50 heure TU. C'est un METAR généré automatiquement. Attention ce METAR est obsolète car il a été émis il y a 8 heure et 16 minutes.

La visibilité est de 2 km=1.2 sm.

La température est de 5°C=41 °F et le point rosée est de 5°C=41 °F . Ce qui correspond à 100% d'humidité relative.

Le QNH est de 988 hPa=29.18 inHg

Vent de 2 kt=4 km/h, orienté à 150°.

Nuages : Couverture nuageuse soudée à 300 ft=90 mètres.

-RA

REDZ

TAF de l'aéroport Linkoping SAAB - ESSL

ESSL 210830Z 2109/2112 14005KT 4000 BR OVC002 PROB40 2109/2112 0200 FG

ESSL 210830Z 2109/2112 14005KT 4000 brume couverture nuageuse soudée à 002 probabilité de 40% d'avoir 2109/2112 0200 brouillard

Aéroport à proximité de Linkoping SAAB

Météo générale à 5 jours à Linköping socken (3.2 km)ESCF Aéroport Linkoping Malmen (9 km)ESSP Aéroport Norrkoping Kungsangen (39 km)ESIA Aéroport Karlsborg (69 km)ESKN Aéroport Stockholm Skavsta (83 km)ESMC Aéroport Eksjo Ranneslatt (93 km)ESOE Aéroport Orebro (98 km)

Vue aérienne de l'aéroport Linkoping SAAB

NOTAM de l'aéroport Linkoping SAAB

Les NOTAM sont fournis sans aucune garantie de leur actualité. Le pilote est le seul responsable de la vérification de sa validité avant de l'utiliser opérationnellement pour préparer un vol ou l'utiliser lors de sa navigation.

Pas de NOTAM

Sources des données